Time,TemperatureF,DewpointF,PressureIn,WindDirection,WindDirectionDegrees,WindSpeedMPH,WindSpeedGustMPH,Humidity,HourlyPrecipIn,Conditions,Clouds,dailyrainin,SoftwareType,DateUTC
2013-02-22 00:00:00,39.0,34.0,-100.00,ESE,112,4.0,-999.0,81,0.00,,,-99.99,,2013-02-22 08:00:00,
2013-02-22 00:21:00,39.0,34.0,-100.00,ESE,112,4.0,-999.0,81,0.00,,,-99.99,,2013-02-22 08:21:00,
2013-02-22 00:32:00,39.0,34.0,-100.00,ESE,112,4.0,-999.0,81,0.00,,,-99.99,,2013-02-22 08:32:00,
2013-02-22 00:42:00,39.0,34.0,-100.00,ESE,112,4.0,-999.0,81,0.00,,,-99.99,,2013-02-22 08:42:00,
2013-02-22 00:52:00,39.0,34.0,-100.00,ESE,112,4.0,-999.0,81,0.00,,,-99.99,,2013-02-22 08:52:00,
2013-02-22 01:00:00,38.0,33.0,-100.00,SW,230,4.0,-999.0,82,0.00,,,-99.99,,2013-02-22 09:00:00,
2013-02-22 01:22:00,38.0,33.0,-100.00,SW,230,4.0,-999.0,82,0.00,,,-99.99,,2013-02-22 09:22:00,
2013-02-22 01:32:00,38.0,33.0,-100.00,SW,230,4.0,-999.0,82,0.00,,,-99.99,,2013-02-22 09:32:00,
2013-02-22 01:42:00,38.0,33.0,-100.00,SW,230,4.0,-999.0,82,0.00,,,-99.99,,2013-02-22 09:42:00,
2013-02-22 01:52:00,38.0,33.0,-100.00,SW,230,4.0,-999.0,82,0.00,,,-99.99,,2013-02-22 09:52:00,
2013-02-22 02:00:00,35.0,32.0,-100.00,South,180,4.0,-999.0,89,0.00,,,-99.99,,2013-02-22 10:00:00,
2013-02-22 02:22:00,35.0,32.0,-100.00,South,180,4.0,-999.0,89,0.00,,,-99.99,,2013-02-22 10:22:00,
2013-02-22 02:32:00,35.0,32.0,-100.00,South,180,4.0,-999.0,89,0.00,,,-99.99,,2013-02-22 10:32:00,
2013-02-22 02:42:00,35.0,32.0,-100.00,South,180,4.0,-999.0,89,0.00,,,-99.99,,2013-02-22 10:42:00,
2013-02-22 02:52:00,35.0,32.0,-100.00,South,180,4.0,-999.0,89,0.00,,,-99.99,,2013-02-22 10:52:00,
2013-02-22 03:00:00,35.0,32.0,-100.00,ESE,111,3.0,-999.0,86,0.00,,,-99.99,,2013-02-22 11:00:00,
2013-02-22 03:22:00,35.0,32.0,-100.00,ESE,111,3.0,-999.0,86,0.00,,,-99.99,,2013-02-22 11:22:00,
2013-02-22 03:32:00,35.0,32.0,-100.00,ESE,111,3.0,-999.0,86,0.00,,,-99.99,,2013-02-22 11:32:00,
2013-02-22 03:42:00,35.0,32.0,-100.00,ESE,111,3.0,-999.0,86,0.00,,,-99.99,,2013-02-22 11:42:00,
2013-02-22 03:52:00,35.0,32.0,-100.00,ESE,111,3.0,-999.0,86,0.00,,,-99.99,,2013-02-22 11:52:00,
2013-02-22 04:00:00,35.0,31.0,-100.00,SE,135,2.0,-999.0,85,0.00,,,-99.99,,2013-02-22 12:00:00,
2013-02-22 04:22:00,35.0,31.0,-100.00,SE,135,2.0,-999.0,85,0.00,,,-99.99,,2013-02-22 12:22:00,
2013-02-22 04:32:00,35.0,31.0,-100.00,SE,135,2.0,-999.0,85,0.00,,,-99.99,,2013-02-22 12:32:00,
2013-02-22 04:42:00,35.0,31.0,-100.00,SE,135,2.0,-999.0,85,0.00,,,-99.99,,2013-02-22 12:42:00,
2013-02-22 04:52:00,35.0,31.0,-100.00,SE,135,2.0,-999.0,85,0.00,,,-99.99,,2013-02-22 12:52:00,
2013-02-22 05:00:00,34.0,30.0,-100.00,East,89,2.0,-999.0,85,0.00,,,-99.99,,2013-02-22 13:00:00,
2013-02-22 05:22:00,34.0,30.0,-100.00,East,89,2.0,-999.0,85,0.00,,,-99.99,,2013-02-22 13:22:00,
2013-02-22 05:32:00,34.0,30.0,-100.00,East,89,2.0,-999.0,85,0.00,,,-99.99,,2013-02-22 13:32:00,
2013-02-22 05:42:00,34.0,30.0,-100.00,East,89,2.0,-999.0,85,0.00,,,-99.99,,2013-02-22 13:42:00,
2013-02-22 05:52:00,34.0,30.0,-100.00,East,89,2.0,-999.0,85,0.00,,,-99.99,,2013-02-22 13:52:00,
2013-02-22 06:00:00,36.0,31.0,-100.00,East,100,3.0,-999.0,81,0.00,,,-99.99,,2013-02-22 14:00:00,
2013-02-22 06:22:00,36.0,31.0,-100.00,East,100,3.0,-999.0,81,0.00,,,-99.99,,2013-02-22 14:22:00,
2013-02-22 06:32:00,36.0,31.0,-100.00,East,100,3.0,-999.0,81,0.00,,,-99.99,,2013-02-22 14:32:00,
2013-02-22 06:42:00,36.0,31.0,-100.00,East,100,3.0,-999.0,81,0.00,,,-99.99,,2013-02-22 14:42:00,
2013-02-22 06:52:00,36.0,31.0,-100.00,East,100,3.0,-999.0,81,0.00,,,-99.99,,2013-02-22 14:52:00,
2013-02-22 07:00:00,36.0,31.0,-100.00,ESE,110,3.0,-999.0,81,0.00,,,-99.99,,2013-02-22 15:00:00,
2013-02-22 07:22:00,36.0,31.0,-100.00,ESE,110,3.0,-999.0,81,0.00,,,-99.99,,2013-02-22 15:22:00,
2013-02-22 07:32:00,36.0,31.0,-100.00,ESE,110,3.0,-999.0,81,0.00,,,-99.99,,2013-02-22 15:32:00,
2013-02-22 07:42:00,36.0,31.0,-100.00,ESE,110,3.0,-999.0,81,0.00,,,-99.99,,2013-02-22 15:42:00,
2013-02-22 07:52:00,36.0,31.0,-100.00,ESE,110,3.0,-999.0,81,0.00,,,-99.99,,2013-02-22 15:52:00,
2013-02-22 08:00:00,38.0,33.0,-100.00,ESE,122,4.0,-999.0,81,0.00,,,-99.99,,2013-02-22 16:00:00,
2013-02-22 08:22:00,38.0,33.0,-100.00,ESE,122,4.0,-999.0,81,0.00,,,-99.99,,2013-02-22 16:22:00,
2013-02-22 08:32:00,38.0,33.0,-100.00,ESE,122,4.0,-999.0,81,0.00,,,-99.99,,2013-02-22 16:32:00,
2013-02-22 08:42:00,38.0,33.0,-100.00,ESE,122,4.0,-999.0,81,0.00,,,-99.99,,2013-02-22 16:42:00,
2013-02-22 08:52:00,38.0,33.0,-100.00,ESE,122,4.0,-999.0,81,0.00,,,-99.99,,2013-02-22 16:52:00,
2013-02-22 09:00:00,47.0,37.0,-100.00,SE,139,4.0,-999.0,66,0.00,,,-99.99,,2013-02-22 17:00:00,
2013-02-22 09:22:00,47.0,37.0,-100.00,SE,139,4.0,-999.0,66,0.00,,,-99.99,,2013-02-22 17:22:00,
2013-02-22 09:32:00,47.0,37.0,-100.00,SE,139,4.0,-999.0,66,0.00,,,-99.99,,2013-02-22 17:32:00,
2013-02-22 09:42:00,47.0,37.0,-100.00,SE,139,4.0,-999.0,66,0.00,,,-99.99,,2013-02-22 17:42:00,
2013-02-22 09:52:00,47.0,37.0,-100.00,SE,139,4.0,-999.0,66,0.00,,,-99.99,,2013-02-22 17:52:00,
2013-02-22 10:00:00,51.0,36.0,-100.00,SW,232,3.0,-999.0,55,0.00,,,-99.99,,2013-02-22 18:00:00,
2013-02-22 10:23:00,51.0,36.0,-100.00,SW,232,3.0,-999.0,55,0.00,,,-99.99,,2013-02-22 18:23:00,
2013-02-22 10:32:00,51.0,36.0,-100.00,SW,232,3.0,-999.0,55,0.00,,,-99.99,,2013-02-22 18:32:00,
2013-02-22 10:42:00,51.0,36.0,-100.00,SW,232,3.0,-999.0,55,0.00,,,-99.99,,2013-02-22 18:42:00,
2013-02-22 10:52:00,51.0,36.0,-100.00,SW,232,3.0,-999.0,55,0.00,,,-99.99,,2013-02-22 18:52:00,
2013-02-22 11:00:00,53.0,35.0,-100.00,WNW,289,1.0,-999.0,50,0.00,,,-99.99,,2013-02-22 19:00:00,
2013-02-22 11:21:00,53.0,35.0,-100.00,WNW,289,1.0,-999.0,50,0.00,,,-99.99,,2013-02-22 19:21:00,
2013-02-22 11:31:00,53.0,35.0,-100.00,WNW,289,1.0,-999.0,50,0.00,,,-99.99,,2013-02-22 19:31:00,
2013-02-22 11:42:00,53.0,35.0,-100.00,WNW,289,1.0,-999.0,50,0.00,,,-99.99,,2013-02-22 19:42:00,
2013-02-22 11:52:00,53.0,35.0,-100.00,WNW,289,1.0,-999.0,50,0.00,,,-99.99,,2013-02-22 19:52:00,
2013-02-22 12:00:00,56.0,35.0,-100.00,WNW,282,5.0,-999.0,45,0.00,,,-99.99,,2013-02-22 20:00:00,
2013-02-22 12:22:00,56.0,35.0,-100.00,WNW,282,5.0,-999.0,45,0.00,,,-99.99,,2013-02-22 20:22:00,
2013-02-22 12:32:00,56.0,35.0,-100.00,WNW,282,5.0,-999.0,45,0.00,,,-99.99,,2013-02-22 20:32:00,
2013-02-22 12:42:00,56.0,35.0,-100.00,WNW,282,5.0,-999.0,45,0.00,,,-99.99,,2013-02-22 20:42:00,
2013-02-22 12:52:00,56.0,35.0,-100.00,WNW,282,5.0,-999.0,45,0.00,,,-99.99,,2013-02-22 20:52:00,
2013-02-22 13:00:00,57.0,37.0,-100.00,West,274,6.0,-999.0,47,0.00,,,-99.99,,2013-02-22 21:00:00,
2013-02-22 13:22:00,57.0,37.0,-100.00,West,274,6.0,-999.0,47,0.00,,,-99.99,,2013-02-22 21:22:00,
2013-02-22 13:32:00,57.0,37.0,-100.00,West,274,6.0,-999.0,47,0.00,,,-99.99,,2013-02-22 21:32:00,
2013-02-22 13:42:00,57.0,37.0,-100.00,West,274,6.0,-999.0,47,0.00,,,-99.99,,2013-02-22 21:42:00,
2013-02-22 13:52:00,57.0,37.0,-100.00,West,274,6.0,-999.0,47,0.00,,,-99.99,,2013-02-22 21:52:00,
2013-02-22 14:00:00,58.0,36.0,-100.00,NW,309,6.0,-999.0,44,0.00,,,-99.99,,2013-02-22 22:00:00,
2013-02-22 14:22:00,58.0,36.0,-100.00,NW,309,6.0,-999.0,44,0.00,,,-99.99,,2013-02-22 22:22:00,
2013-02-22 14:32:00,58.0,36.0,-100.00,NW,309,6.0,-999.0,44,0.00,,,-99.99,,2013-02-22 22:32:00,
2013-02-22 14:42:00,58.0,36.0,-100.00,NW,309,6.0,-999.0,44,0.00,,,-99.99,,2013-02-22 22:42:00,
2013-02-22 14:52:00,58.0,36.0,-100.00,NW,309,6.0,-999.0,44,0.00,,,-99.99,,2013-02-22 22:52:00,
2013-02-22 15:00:00,59.0,37.0,-100.00,NW,308,2.0,-999.0,44,0.00,,,-99.99,,2013-02-22 23:00:00,
2013-02-22 15:21:00,59.0,37.0,-100.00,NW,308,2.0,-999.0,44,0.00,,,-99.99,,2013-02-22 23:21:00,
2013-02-22 15:32:00,59.0,37.0,-100.00,NW,308,2.0,-999.0,44,0.00,,,-99.99,,2013-02-22 23:32:00,
2013-02-22 15:42:00,59.0,37.0,-100.00,NW,308,2.0,-999.0,44,0.00,,,-99.99,,2013-02-22 23:42:00,
2013-02-22 15:52:00,59.0,37.0,-100.00,NW,308,2.0,-999.0,44,0.00,,,-99.99,,2013-02-22 23:52:00,
2013-02-22 16:00:00,59.0,38.0,-100.00,West,269,5.0,-999.0,45,0.00,,,-99.99,,2013-02-23 00:00:00,
2013-02-22 16:21:00,59.0,38.0,-100.00,West,269,5.0,-999.0,45,0.00,,,-99.99,,2013-02-23 00:21:00,
2013-02-22 16:32:00,59.0,38.0,-100.00,West,269,5.0,-999.0,45,0.00,,,-99.99,,2013-02-23 00:32:00,
2013-02-22 16:42:00,59.0,38.0,-100.00,West,269,5.0,-999.0,45,0.00,,,-99.99,,2013-02-23 00:42:00,
2013-02-22 16:52:00,59.0,38.0,-100.00,West,269,5.0,-999.0,45,0.00,,,-99.99,,2013-02-23 00:52:00,
2013-02-22 17:00:00,58.0,38.0,-100.00,WNW,284,7.0,-999.0,47,0.00,,,-99.99,,2013-02-23 01:00:00,
2013-02-22 17:21:00,58.0,38.0,-100.00,WNW,284,7.0,-999.0,47,0.00,,,-99.99,,2013-02-23 01:21:00,
2013-02-22 17:32:00,58.0,38.0,-100.00,WNW,284,7.0,-999.0,47,0.00,,,-99.99,,2013-02-23 01:32:00,
2013-02-22 17:42:00,58.0,38.0,-100.00,WNW,284,7.0,-999.0,47,0.00,,,-99.99,,2013-02-23 01:42:00,
2013-02-22 17:52:00,58.0,38.0,-100.00,WNW,284,7.0,-999.0,47,0.00,,,-99.99,,2013-02-23 01:52:00,
2013-02-22 18:00:00,54.0,40.0,-100.00,WNW,286,4.0,-999.0,58,0.00,,,-99.99,,2013-02-23 02:00:00,
2013-02-22 18:22:00,54.0,40.0,-100.00,WNW,286,4.0,-999.0,58,0.00,,,-99.99,,2013-02-23 02:22:00,
2013-02-22 18:32:00,54.0,40.0,-100.00,WNW,286,4.0,-999.0,58,0.00,,,-99.99,,2013-02-23 02:32:00,
2013-02-22 18:42:00,54.0,40.0,-100.00,WNW,286,4.0,-999.0,58,0.00,,,-99.99,,2013-02-23 02:42:00,
2013-02-22 18:52:00,54.0,40.0,-100.00,WNW,286,4.0,-999.0,58,0.00,,,-99.99,,2013-02-23 02:52:00,
2013-02-22 19:00:00,50.0,41.0,-100.00,ESE,111,0.0,-999.0,70,0.00,,,-99.99,,2013-02-23 03:00:00,
2013-02-22 19:22:00,50.0,41.0,-100.00,ESE,111,0.0,-999.0,70,0.00,,,-99.99,,2013-02-23 03:22:00,
2013-02-22 19:32:00,50.0,41.0,-100.00,ESE,111,0.0,-999.0,70,0.00,,,-99.99,,2013-02-23 03:32:00,
2013-02-22 19:42:00,50.0,41.0,-100.00,ESE,111,0.0,-999.0,70,0.00,,,-99.99,,2013-02-23 03:42:00,
2013-02-22 19:52:00,50.0,41.0,-100.00,ESE,111,0.0,-999.0,70,0.00,,,-99.99,,2013-02-23 03:52:00,
2013-02-22 20:00:00,49.0,40.0,-100.00,ESE,111,2.0,-999.0,70,0.00,,,-99.99,,2013-02-23 04:00:00,
2013-02-22 20:21:00,49.0,40.0,-100.00,ESE,111,2.0,-999.0,70,0.00,,,-99.99,,2013-02-23 04:21:00,
2013-02-22 20:32:00,49.0,40.0,-100.00,ESE,111,2.0,-999.0,70,0.00,,,-99.99,,2013-02-23 04:32:00,
2013-02-22 20:42:00,49.0,40.0,-100.00,ESE,111,2.0,-999.0,70,0.00,,,-99.99,,2013-02-23 04:42:00,
2013-02-22 20:52:00,49.0,40.0,-100.00,ESE,111,2.0,-999.0,70,0.00,,,-99.99,,2013-02-23 04:52:00,
2013-02-22 21:00:00,44.0,38.0,-100.00,ESE,108,4.0,-999.0,79,0.00,,,-99.99,,2013-02-23 05:00:00,
2013-02-22 21:23:00,44.0,38.0,-100.00,ESE,108,4.0,-999.0,79,0.00,,,-99.99,,2013-02-23 05:23:00,
2013-02-22 21:33:00,44.0,38.0,-100.00,ESE,108,4.0,-999.0,79,0.00,,,-99.99,,2013-02-23 05:33:00,
2013-02-22 21:42:00,44.0,38.0,-100.00,ESE,108,4.0,-999.0,79,0.00,,,-99.99,,2013-02-23 05:42:00,
2013-02-22 21:52:00,44.0,38.0,-100.00,ESE,108,4.0,-999.0,79,0.00,,,-99.99,,2013-02-23 05:52:00,
2013-02-22 22:00:00,42.0,37.0,-100.00,SSE,155,2.0,-999.0,84,0.00,,,-99.99,,2013-02-23 06:00:00,
2013-02-22 22:23:00,42.0,37.0,-100.00,SSE,155,2.0,-999.0,84,0.00,,,-99.99,,2013-02-23 06:23:00,
2013-02-22 22:32:00,42.0,37.0,-100.00,SSE,155,2.0,-999.0,84,0.00,,,-99.99,,2013-02-23 06:32:00,
2013-02-22 22:42:00,42.0,37.0,-100.00,SSE,155,2.0,-999.0,84,0.00,,,-99.99,,2013-02-23 06:42:00,
2013-02-22 22:52:00,42.0,37.0,-100.00,SSE,155,2.0,-999.0,84,0.00,,,-99.99,,2013-02-23 06:52:00,
2013-02-22 23:00:00,42.0,37.0,-100.00,East,99,3.0,-999.0,84,0.00,,,-99.99,,2013-02-23 07:00:00,
2013-02-22 23:21:00,42.0,37.0,-100.00,East,99,3.0,-999.0,84,0.00,,,-99.99,,2013-02-23 07:21:00,
2013-02-22 23:32:00,42.0,37.0,-100.00,East,99,3.0,-999.0,84,0.00,,,-99.99,,2013-02-23 07:32:00,
2013-02-22 23:42:00,42.0,37.0,-100.00,East,99,3.0,-999.0,84,0.00,,,-99.99,,2013-02-23 07:42:00,
2013-02-22 23:52:00,42.0,37.0,-100.00,East,99,3.0,-999.0,84,0.00,,,-99.99,,2013-02-23 07:52:00,